Time;durP1;ratioP1;P1;durP2;ratioP2;P2;SDS_P1;SDS_P2;PMS_P1;PMS_P2;Temp;Humidity;BMP_temperature;BMP_pressure;BME280_temperature;BME280_humidity;BME280_pressure;Samples;Min_cycle;Max_cycle;Signal;HPM_P1;HPM_P2
2022/08/09 00:00:54;;;;;;;;;;;;;;;;;;5094194;28;1906;-71
2022/08/09 00:03:19;;;;;;;;;;;;;;;;;;5094230;28;955;-72
2022/08/09 00:05:44;;;;;;;;;;;;;;;;;;5096031;28;840;-72
2022/08/09 00:08:09;;;;;;;;;;;;;;;;;;5095149;28;990;-72
2022/08/09 00:10:35;;;;;;;;;;;;;;;;;;5093760;28;1383;-72
2022/08/09 00:13:00;;;;;;;;;;;;;;;;;;5094469;28;1151;-72
2022/08/09 00:15:26;;;;;;;;;;;;;;;;;;5093787;28;1365;-72
2022/08/09 00:17:51;;;;;;;;;;;;;;;;;;5095116;28;753;-72
2022/08/09 00:20:16;;;;;;;;;;;;;;;;;;5093884;28;1945;-72
2022/08/09 00:22:41;;;;;;;;;;;;;;;;;;5094099;28;1194;-72
2022/08/09 00:25:07;;;;;;;;;;;;;;;;;;5094127;28;1159;-72
2022/08/09 00:27:32;;;;;;;;;;;;;;;;;;5093507;28;812;-72
2022/08/09 00:29:58;;;;;;;;;;;;;;;;;;5076860;28;1215;-72
2022/08/09 00:32:23;;;;;;;;;;;;;;;;;;5094970;28;1171;-72
2022/08/09 00:34:48;;;;;;;;;;;;;;;;;;5093777;28;1042;-72
2022/08/09 00:37:14;;;;;;;;;;;;;;;;;;5076637;28;1298;-73
2022/08/09 00:39:39;;;;;;;;;;;;;;;;;;5095152;28;824;-72
2022/08/09 00:42:04;;;;;;;;;;;;;;;;;;5076583;28;1914;-72
2022/08/09 00:44:30;;;;;;;;;;;;;;;;;;5094746;28;843;-71
2022/08/09 00:46:55;;;;;;;;;;;;;;;;;;5093392;28;926;-72
2022/08/09 00:49:20;;;;;;;;;;;;;;;;;;5093732;28;925;-71
2022/08/09 00:51:47;;;;;;;;;;;;;;;;;;5093468;28;1167;-71
2022/08/09 00:54:13;;;;;;;;;;;;;;;;;;5094914;28;923;-72
2022/08/09 00:56:38;;;;;;;;;;;;;;;;;;5094651;28;883;-71
2022/08/09 00:59:03;;;;;;;;;;;;;;;;;;5093796;28;879;-72
2022/08/09 01:01:31;;;;;;;;;;;;;;;;;;5076271;28;1956;-71
2022/08/09 01:04:03;;;;;;;;;;;;;;;;;;5094416;28;900;-71
2022/08/09 01:06:47;;;;;;;;;;;;;;;;;;5094795;28;824;-72
2022/08/09 01:09:31;;;;;;;;;;;;;;;;;;5094282;28;894;-71
2022/08/09 01:11:59;;;;;;;;;;;;;;;;;;5094296;28;895;-72
2022/08/09 01:14:39;;;;;;;;;;;;;;;;;;5093871;28;985;-72
2022/08/09 01:17:10;;;;;;;;;;;;;;;;;;5092984;28;1206;-71
2022/08/09 01:19:35;;;;;;;;;;;;;;;;;;5092483;28;1170;-71
2022/08/09 01:22:24;;;;;;;;;;;;;;;;;;5094450;28;1909;-73
2022/08/09 01:24:49;;;;;;;;;;;;;;;;;;5092450;28;1277;-72
2022/08/09 01:27:16;;;;;;;;;;;;;;;;;;5092578;28;1309;-73
2022/08/09 01:29:50;;;;;;;;;;;;;;;;;;5092223;28;1300;-73
2022/08/09 01:32:17;;;;;;;;;;;;;;;;;;5093116;28;1178;-72
2022/08/09 01:34:43;;;;;;;;;;;;;;;;;;5092143;28;1281;-72
2022/08/09 01:37:09;;;;;;;;;;;;;;;;;;5093804;28;1107;-72
2022/08/09 01:39:36;;;;;;;;;;;;;;;;;;5092741;28;836;-72
2022/08/09 01:42:03;;;;;;;;;;;;;;;;;;5093557;28;1902;-73
2022/08/09 01:44:29;;;;;;;;;;;;;;;;;;5092429;28;1171;-72
2022/08/09 01:46:54;;;;;;;;;;;;;;;;;;5091994;28;1277;-73
2022/08/09 01:49:20;;;;;;;;;;;;;;;;;;5093741;28;812;-72
2022/08/09 01:51:49;;;;;;;;;;;;;;;;;;5092542;28;816;-73
2022/08/09 01:54:15;;;;;;;;;;;;;;;;;;5093645;28;860;-73
2022/08/09 01:56:42;;;;;;;;;;;;;;;;;;5091958;28;1218;-71
2022/08/09 01:59:10;;;;;;;;;;;;;;;;;;5093388;28;824;-72
2022/08/09 02:01:36;;;;;;;;;;;;;;;;;;5093023;28;1956;-72
2022/08/09 02:04:02;;;;;;;;;;;;;;;;;;5093174;28;864;-72
2022/08/09 02:09:13;;;;;;;;;;;;;;;;;;5092641;28;638;-72
2022/08/09 02:11:38;;;;;;;;;;;;;;;;;;5091954;28;899;-72
2022/08/09 02:14:04;;;;;;;;;;;;;;;;;;5092953;28;981;-72
2022/08/09 02:16:34;;;;;;;;;;;;;;;;;;5093085;28;844;-72
2022/08/09 02:19:00;;;;;;;;;;;;;;;;;;5091903;28;1171;-72
2022/08/09 02:21:25;;;;;;;;;;;;;;;;;;5092927;28;1935;-72
2022/08/09 02:23:55;;;;;;;;;;;;;;;;;;5093220;28;913;-72
2022/08/09 02:26:21;;;;;;;;;;;;;;;;;;5094236;28;1274;-71
2022/08/09 02:28:49;;;;;;;;;;;;;;;;;;5095931;28;1147;-72
2022/08/09 02:31:17;;;;;;;;;;;;;;;;;;5097559;28;999;-72
2022/08/09 02:33:44;;;;;;;;;;;;;;;;;;5096277;28;1305;-71
2022/08/09 02:36:13;;;;;;;;;;;;;;;;;;5096261;28;1067;-72
2022/08/09 02:38:43;;;;;;;;;;;;;;;;;;5096375;28;1149;-72
2022/08/09 02:41:09;;;;;;;;;;;;;;;;;;5095917;28;1973;-72
2022/08/09 02:43:36;;;;;;;;;;;;;;;;;;5097008;28;922;-71
2022/08/09 02:46:04;;;;;;;;;;;;;;;;;;5095468;28;1187;-71
2022/08/09 02:48:30;;;;;;;;;;;;;;;;;;5096965;28;887;-72
2022/08/09 02:50:58;;;;;;;;;;;;;;;;;;5095604;28;1199;-72
2022/08/09 02:53:33;;;;;;;;;;;;;;;;;;5096703;28;969;-71
2022/08/09 02:55:59;;;;;;;;;;;;;;;;;;5096726;28;901;-72
2022/08/09 02:58:30;;;;;;;;;;;;;;;;;;5095386;28;1178;-72
2022/08/09 03:00:56;;;;;;;;;;;;;;;;;;5094893;28;1967;-72
2022/08/09 03:03:22;;;;;;;;;;;;;;;;;;5096836;28;971;-72
2022/08/09 03:05:49;;;;;;;;;;;;;;;;;;5096575;28;903;-72
2022/08/09 03:08:15;;;;;;;;;;;;;;;;;;5096597;28;792;-72
2022/08/09 03:10:42;;;;;;;;;;;;;;;;;;5096727;28;872;-72
2022/08/09 03:13:08;;;;;;;;;;;;;;;;;;5094898;28;1290;-72
2022/08/09 03:15:34;;;;;;;;;;;;;;;;;;5096205;28;841;-72
2022/08/09 03:18:01;;;;;;;;;;;;;;;;;;5077932;28;1310;-71
2022/08/09 03:20:27;;;;;;;;;;;;;;;;;;5094762;28;1973;-72
2022/08/09 03:22:53;;;;;;;;;;;;;;;;;;5077474;28;1242;-72
2022/08/09 03:25:18;;;;;;;;;;;;;;;;;;5096075;28;907;-72
2022/08/09 03:27:46;;;;;;;;;;;;;;;;;;5095031;28;1163;-72
2022/08/09 03:30:12;;;;;;;;;;;;;;;;;;5095885;28;804;-72
2022/08/09 03:32:39;;;;;;;;;;;;;;;;;;5077834;28;1179;-72
2022/08/09 03:35:04;;;;;;;;;;;;;;;;;;5094688;28;1314;-71
2022/08/09 03:37:29;;;;;;;;;;;;;;;;;;5094492;28;892;-71
2022/08/09 03:39:55;;;;;;;;;;;;;;;;;;5094403;28;1266;-72
2022/08/09 03:42:20;;;;;;;;;;;;;;;;;;5094567;28;872;-72
2022/08/09 03:44:45;;;;;;;;;;;;;;;;;;5095923;28;960;-72
2022/08/09 03:47:11;;;;;;;;;;;;;;;;;;5094489;28;1196;-72
2022/08/09 03:49:37;;;;;;;;;;;;;;;;;;5094485;28;812;-72
2022/08/09 03:52:04;;;;;;;;;;;;;;;;;;5095291;28;974;-72
2022/08/09 03:54:30;;;;;;;;;;;;;;;;;;5093905;28;1227;-71
2022/08/09 03:56:57;;;;;;;;;;;;;;;;;;5095470;28;889;-72
2022/08/09 03:59:23;;;;;;;;;;;;;;;;;;5094046;28;1166;-72
2022/08/09 04:01:49;;;;;;;;;;;;;;;;;;5094971;28;1965;-72
2022/08/09 04:04:15;;;;;;;;;;;;;;;;;;5095243;28;852;-71
2022/08/09 04:06:40;;;;;;;;;;;;;;;;;;5097484;28;896;-71
2022/08/09 04:09:06;;;;;;;;;;;;;;;;;;5103219;28;825;-71
2022/08/09 04:11:49;;;;;;;;;;;;;;;;;;5084634;28;1175;-70
2022/08/09 04:14:20;;;;;;;;;;;;;;;;;;5102370;28;1062;-71
2022/08/09 04:16:45;;;;;;;;;;;;;;;;;;5102733;28;821;-71
2022/08/09 04:19:12;;;;;;;;;;;;;;;;;;5102226;28;1166;-71
2022/08/09 04:21:37;;;;;;;;;;;;;;;;;;5102394;28;1914;-71
2022/08/09 04:24:03;;;;;;;;;;;;;;;;;;5103064;28;1066;-71
2022/08/09 04:26:28;;;;;;;;;;;;;;;;;;5101640;28;977;-72
2022/08/09 04:28:53;;;;;;;;;;;;;;;;;;5102884;28;1132;-71
2022/08/09 04:31:19;;;;;;;;;;;;;;;;;;5102145;28;949;-71
2022/08/09 04:33:44;;;;;;;;;;;;;;;;;;5101693;28;1355;-71
2022/08/09 04:36:09;;;;;;;;;;;;;;;;;;5085946;28;1184;-71
2022/08/09 04:38:34;;;;;;;;;;;;;;;;;;5102614;28;1061;-71
2022/08/09 04:41:00;;;;;;;;;;;;;;;;;;5101969;28;1894;-71
2022/08/09 04:43:25;;;;;;;;;;;;;;;;;;5100031;28;852;-71
2022/08/09 04:45:51;;;;;;;;;;;;;;;;;;5099450;28;935;-71
2022/08/09 04:48:16;;;;;;;;;;;;;;;;;;5093456;28;1128;-71
2022/08/09 04:50:43;;;;;;;;;;;;;;;;;;5095415;28;943;-71
2022/08/09 04:53:09;;;;;;;;;;;;;;;;;;5093960;28;1314;-71
2022/08/09 04:55:34;;;;;;;;;;;;;;;;;;5093618;28;1369;-71
2022/08/09 04:58:00;;;;;;;;;;;;;;;;;;5095154;28;903;-72
2022/08/09 05:00:25;;;;;;;;;;;;;;;;;;5093393;28;1926;-71
2022/08/09 05:02:51;;;;;;;;;;;;;;;;;;5097283;28;836;-72
2022/08/09 05:05:16;;;;;;;;;;;;;;;;;;5093971;28;1182;-71
2022/08/09 05:07:41;;;;;;;;;;;;;;;;;;5097647;28;1239;-71
2022/08/09 05:10:07;;;;;;;;;;;;;;;;;;5114326;28;1269;-71
2022/08/09 05:12:32;;;;;;;;;;;;;;;;;;5114798;28;914;-71
2022/08/09 05:14:58;;;;;;;;;;;;;;;;;;5114825;28;962;-72
2022/08/09 05:17:23;;;;;;;;;;;;;;;;;;5110813;28;1186;-72
2022/08/09 05:19:48;;;;;;;;;;;;;;;;;;5105566;28;1163;-72
2022/08/09 05:22:13;;;;;;;;;;;;;;;;;;5101766;28;1969;-71
2022/08/09 05:24:39;;;;;;;;;;;;;;;;;;5079694;28;1309;-72
2022/08/09 05:27:05;;;;;;;;;;;;;;;;;;5080895;28;1218;-73
2022/08/09 05:29:30;;;;;;;;;;;;;;;;;;5087055;28;1187;-72
2022/08/09 05:31:59;;;;;;;;;;;;;;;;;;5096604;28;1202;-72
2022/08/09 05:34:28;;;;;;;;;;;;;;;;;;5079819;28;1227;-72
2022/08/09 05:36:55;;;;;;;;;;;;;;;;;;5114321;28;848;-71
2022/08/09 05:39:20;;;;;;;;;;;;;;;;;;5114753;28;864;-72
2022/08/09 05:41:46;;;;;;;;;;;;;;;;;;5112991;28;1981;-73
2022/08/09 05:44:11;;;;;;;;;;;;;;;;;;5112825;28;1171;-72
2022/08/09 05:46:36;;;;;;;;;;;;;;;;;;5112586;28;1166;-72
2022/08/09 05:49:02;;;;;;;;;;;;;;;;;;5113814;28;974;-71
2022/08/09 05:51:27;;;;;;;;;;;;;;;;;;5113157;28;1278;-72
2022/08/09 05:53:52;;;;;;;;;;;;;;;;;;5113122;28;912;-71
2022/08/09 05:56:17;;;;;;;;;;;;;;;;;;5112429;28;1351;-72
2022/08/09 05:58:43;;;;;;;;;;;;;;;;;;5113753;28;848;-72
2022/08/09 06:01:09;;;;;;;;;;;;;;;;;;5112414;28;1901;-72
2022/08/09 06:03:34;;;;;;;;;;;;;;;;;;5113532;28;840;-72
2022/08/09 06:05:59;;;;;;;;;;;;;;;;;;5112427;28;872;-72
2022/08/09 06:08:24;;;;;;;;;;;;;;;;;;5111823;28;1151;-72
2022/08/09 06:10:50;;;;;;;;;;;;;;;;;;5114165;28;857;-73
2022/08/09 06:13:16;;;;;;;;;;;;;;;;;;5115006;28;1047;-73
2022/08/09 06:15:42;;;;;;;;;;;;;;;;;;5114001;28;1245;-74
2022/08/09 06:18:07;;;;;;;;;;;;;;;;;;5113511;28;1231;-74
2022/08/09 06:20:33;;;;;;;;;;;;;;;;;;5112040;28;1954;-74
2022/08/09 06:22:58;;;;;;;;;;;;;;;;;;5095498;28;1199;-73
2022/08/09 06:25:24;;;;;;;;;;;;;;;;;;5113655;28;823;-74
2022/08/09 06:27:49;;;;;;;;;;;;;;;;;;5112357;28;892;-74
2022/08/09 06:30:15;;;;;;;;;;;;;;;;;;5111920;28;995;-73
2022/08/09 06:32:41;;;;;;;;;;;;;;;;;;5111630;28;1269;-72
2022/08/09 06:35:06;;;;;;;;;;;;;;;;;;5095072;28;1333;-72
2022/08/09 06:37:32;;;;;;;;;;;;;;;;;;5113193;28;931;-72
2022/08/09 06:39:57;;;;;;;;;;;;;;;;;;5095285;28;1426;-72
2022/08/09 06:42:22;;;;;;;;;;;;;;;;;;5112757;28;2000;-72
2022/08/09 06:44:47;;;;;;;;;;;;;;;;;;5112953;28;927;-72
2022/08/09 06:47:13;;;;;;;;;;;;;;;;;;5094576;28;1356;-72
2022/08/09 06:49:38;;;;;;;;;;;;;;;;;;5112767;28;1069;-72
2022/08/09 06:52:04;;;;;;;;;;;;;;;;;;5112907;28;919;-72
2022/08/09 06:54:29;;;;;;;;;;;;;;;;;;5111735;28;1323;-73
2022/08/09 06:56:54;;;;;;;;;;;;;;;;;;5094984;28;1204;-73
2022/08/09 06:59:20;;;;;;;;;;;;;;;;;;5112337;28;792;-73
2022/08/09 07:01:45;;;;;;;;;;;;;;;;;;5095054;28;1886;-72
2022/08/09 07:04:10;;;;;;;;;;;;;;;;;;5095179;28;1369;-73
2022/08/09 07:06:36;;;;;;;;;;;;;;;;;;5112775;28;844;-73
2022/08/09 07:09:01;;;;;;;;;;;;;;;;;;5113277;28;974;-73
2022/08/09 07:11:26;;;;;;;;;;;;;;;;;;5112544;28;1210;-73
2022/08/09 07:13:52;;;;;;;;;;;;;;;;;;5115422;28;840;-72
2022/08/09 07:16:17;;;;;;;;;;;;;;;;;;5116667;28;978;-73
2022/08/09 07:18:42;;;;;;;;;;;;;;;;;;5116694;28;1032;-71
2022/08/09 07:21:08;;;;;;;;;;;;;;;;;;5116505;28;1902;-71
2022/08/09 07:23:33;;;;;;;;;;;;;;;;;;5115307;28;1005;-72
2022/08/09 07:25:59;;;;;;;;;;;;;;;;;;5114851;28;1238;-71
2022/08/09 07:28:25;;;;;;;;;;;;;;;;;;5114309;28;1237;-71
2022/08/09 07:30:51;;;;;;;;;;;;;;;;;;5115766;27;844;-72
2022/08/09 07:33:16;;;;;;;;;;;;;;;;;;5115354;28;1080;-71
2022/08/09 07:35:42;;;;;;;;;;;;;;;;;;5116315;28;836;-72
2022/08/09 07:38:07;;;;;;;;;;;;;;;;;;5096421;28;1376;-72
2022/08/09 07:40:32;;;;;;;;;;;;;;;;;;5074799;28;1902;-72
2022/08/09 07:42:58;;;;;;;;;;;;;;;;;;5074315;28;1147;-72
2022/08/09 07:45:24;;;;;;;;;;;;;;;;;;5075361;28;903;-71
2022/08/09 07:47:53;;;;;;;;;;;;;;;;;;5075385;28;852;-72
2022/08/09 07:50:19;;;;;;;;;;;;;;;;;;5073492;28;1273;-71
2022/08/09 07:52:45;;;;;;;;;;;;;;;;;;5073763;28;983;-71
2022/08/09 07:55:10;;;;;;;;;;;;;;;;;;5075312;28;868;-72
2022/08/09 07:57:35;;;;;;;;;;;;;;;;;;5074792;28;852;-72
2022/08/09 08:00:01;;;;;;;;;;;;;;;;;;5074756;28;880;-72
2022/08/09 08:02:26;;;;;;;;;;;;;;;;;;5074603;28;1901;-72
2022/08/09 08:04:51;;;;;;;;;;;;;;;;;;5074782;28;983;-72
2022/08/09 08:07:16;;;;;;;;;;;;;;;;;;5074525;28;971;-72
2022/08/09 08:09:42;;;;;;;;;;;;;;;;;;5073314;28;924;-72
2022/08/09 08:12:07;;;;;;;;;;;;;;;;;;5073579;28;808;-72
2022/08/09 08:14:33;;;;;;;;;;;;;;;;;;5074372;28;970;-72
2022/08/09 08:16:58;;;;;;;;;;;;;;;;;;5074770;28;884;-72
2022/08/09 08:19:23;;;;;;;;;;;;;;;;;;5072456;28;1205;-72
2022/08/09 08:21:50;;;;;;;;;;;;;;;;;;5074471;28;1914;-72
2022/08/09 08:24:15;;;;;;;;;;;;;;;;;;5072300;28;1336;-72
2022/08/09 08:26:40;;;;;;;;;;;;;;;;;;5074525;28;911;-72
2022/08/09 08:29:06;;;;;;;;;;;;;;;;;;5073355;28;896;-72
2022/08/09 08:31:31;;;;;;;;;;;;;;;;;;5056141;28;1360;-72
2022/08/09 08:33:56;;;;;;;;;;;;;;;;;;5087848;28;1182;-72
2022/08/09 08:36:23;;;;;;;;;;;;;;;;;;5093985;28;987;-71
2022/08/09 08:38:48;;;;;;;;;;;;;;;;;;5076093;28;1171;-72
2022/08/09 08:41:14;;;;;;;;;;;;;;;;;;5060157;28;1910;-72
2022/08/09 08:43:39;;;;;;;;;;;;;;;;;;5058949;28;1369;-72
2022/08/09 08:46:06;;;;;;;;;;;;;;;;;;5094165;28;957;-72
2022/08/09 08:48:32;;;;;;;;;;;;;;;;;;5075913;28;1263;-70
2022/08/09 08:50:57;;;;;;;;;;;;;;;;;;5076076;28;876;-70
2022/08/09 08:53:23;;;;;;;;;;;;;;;;;;5094357;28;889;-71
2022/08/09 08:55:48;;;;;;;;;;;;;;;;;;5059185;28;1227;-71
2022/08/09 08:58:14;;;;;;;;;;;;;;;;;;5093933;28;805;-71
2022/08/09 09:00:41;;;;;;;;;;;;;;;;;;5093463;28;2337;-71
2022/08/09 09:03:07;;;;;;;;;;;;;;;;;;5093655;28;848;-71
2022/08/09 09:05:32;;;;;;;;;;;;;;;;;;5075084;28;1195;-71
2022/08/09 09:07:58;;;;;;;;;;;;;;;;;;5059048;28;1354;-71
2022/08/09 09:10:25;;;;;;;;;;;;;;;;;;5075915;28;781;-71
2022/08/09 09:12:50;;;;;;;;;;;;;;;;;;5093468;28;868;-71
2022/08/09 09:15:16;;;;;;;;;;;;;;;;;;5093788;28;1027;-71
2022/08/09 09:17:41;;;;;;;;;;;;;;;;;;5093490;28;817;-71
2022/08/09 09:20:07;;;;;;;;;;;;;;;;;;5093633;28;844;-71
2022/08/09 09:22:48;;;;;;;;;;;;;;;;;;5093085;28;1890;-71
2022/08/09 09:25:29;;;;;;;;;;;;;;;;;;5093032;28;1062;-71
2022/08/09 09:27:54;;;;;;;;;;;;;;;;;;5093015;28;832;-71
2022/08/09 09:30:20;;;;;;;;;;;;;;;;;;5074615;28;1258;-71
2022/08/09 09:32:59;;;;;;;;;;;;;;;;;;5073974;28;1227;-70
2022/08/09 09:35:24;;;;;;;;;;;;;;;;;;5092563;28;824;-71
2022/08/09 09:37:52;;;;;;;;;;;;;;;;;;5074406;28;1390;-71
2022/08/09 09:40:17;;;;;;;;;;;;;;;;;;5092524;28;1913;-71
2022/08/09 09:42:53;;;;;;;;;;;;;;;;;;5074525;28;824;-71
2022/08/09 09:45:18;;;;;;;;;;;;;;;;;;5074575;28;1191;-71
2022/08/09 09:47:45;;;;;;;;;;;;;;;;;;5074271;28;1286;-70
2022/08/09 09:50:10;;;;;;;;;;;;;;;;;;5074470;28;1216;-71
2022/08/09 09:52:47;;;;;;;;;;;;;;;;;;5074516;28;1136;-71
2022/08/09 09:55:14;;;;;;;;;;;;;;;;;;5074332;28;1211;-71
2022/08/09 09:57:39;;;;;;;;;;;;;;;;;;5092593;28;896;-71
2022/08/09 10:00:20;;;;;;;;;;;;;;;;;;5092484;28;895;-71
2022/08/09 10:02:45;;;;;;;;;;;;;;;;;;5092163;28;835;-70
2022/08/09 10:05:11;;;;;;;;;;;;;;;;;;5074883;28;903;-71
2022/08/09 10:07:36;;;;;;;;;;;;;;;;;;5092657;28;887;-70
2022/08/09 10:10:03;;;;;;;;;;;;;;;;;;5074869;28;916;-71
2022/08/09 10:12:36;;;;;;;;;;;;;;;;;;5092931;28;853;-71
2022/08/09 10:15:14;;;;;;;;;;;;;;;;;;5075340;28;1194;-71
2022/08/09 10:17:40;;;;;;;;;;;;;;;;;;5075528;28;1326;-71
2022/08/09 10:20:18;;;;;;;;;;;;;;;;;;5092978;28;911;-71
2022/08/09 10:22:44;;;;;;;;;;;;;;;;;;5074706;28;1345;-71
2022/08/09 10:25:10;;;;;;;;;;;;;;;;;;5093302;28;964;-71
2022/08/09 10:27:35;;;;;;;;;;;;;;;;;;5074700;28;832;-71
2022/08/09 10:30:01;;;;;;;;;;;;;;;;;;5093046;28;848;-71
2022/08/09 10:32:27;;;;;;;;;;;;;;;;;;5074047;28;1051;-72
2022/08/09 10:34:54;;;;;;;;;;;;;;;;;;5092268;28;995;-71
2022/08/09 10:37:20;;;;;;;;;;;;;;;;;;5092431;28;813;-70
2022/08/09 10:39:46;;;;;;;;;;;;;;;;;;5092127;28;896;-70
2022/08/09 10:42:12;;;;;;;;;;;;;;;;;;5074600;28;1969;-72
2022/08/09 10:44:38;;;;;;;;;;;;;;;;;;5092146;28;864;-72
2022/08/09 10:47:16;;;;;;;;;;;;;;;;;;5094788;28;1054;-72
2022/08/09 10:50:16;;;;;;;;;;;;;;;;;;5096248;28;955;-72
2022/08/09 10:53:00;;;;;;;;;;;;;;;;;;5031887;28;1316;-73
2022/08/09 10:55:27;;;;;;;;;;;;;;;;;;5090600;28;977;-72
2022/08/09 10:57:53;;;;;;;;;;;;;;;;;;5095834;28;900;-72
2022/08/09 11:00:28;;;;;;;;;;;;;;;;;;5078077;28;1964;-72
2022/08/09 11:02:54;;;;;;;;;;;;;;;;;;5095846;28;868;-72
2022/08/09 11:05:21;;;;;;;;;;;;;;;;;;5096529;28;899;-72
2022/08/09 11:07:46;;;;;;;;;;;;;;;;;;5077714;28;1501;-72
2022/08/09 11:10:32;;;;;;;;;;;;;;;;;;5077855;28;1206;-72
2022/08/09 11:13:13;;;;;;;;;;;;;;;;;;5066948;28;1373;-72
2022/08/09 11:15:38;;;;;;;;;;;;;;;;;;5096367;28;848;-72
2022/08/09 11:18:04;;;;;;;;;;;;;;;;;;5095616;28;841;-72
2022/08/09 11:20:41;;;;;;;;;;;;;;;;;;5077611;28;1898;-72
2022/08/09 11:23:08;;;;;;;;;;;;;;;;;;5078122;28;1038;-72
2022/08/09 11:25:35;;;;;;;;;;;;;;;;;;5077570;28;1242;-72
2022/08/09 11:28:21;;;;;;;;;;;;;;;;;;5095325;28;832;-72
2022/08/09 11:30:46;;;;;;;;;;;;;;;;;;5076639;28;1254;-72
2022/08/09 11:33:17;;;;;;;;;;;;;;;;;;5095329;28;1060;-73
2022/08/09 11:35:53;;;;;;;;;;;;;;;;;;5076772;28;1286;-72
2022/08/09 11:38:21;;;;;;;;;;;;;;;;;;5077020;28;1201;-73
2022/08/09 11:40:46;;;;;;;;;;;;;;;;;;5076898;28;1913;-73
2022/08/09 11:43:16;;;;;;;;;;;;;;;;;;5077124;28;1333;-73
2022/08/09 11:45:52;;;;;;;;;;;;;;;;;;5076909;28;1297;-72
2022/08/09 11:48:20;;;;;;;;;;;;;;;;;;5094771;28;880;-72
2022/08/09 11:50:57;;;;;;;;;;;;;;;;;;5076521;28;1353;-73
2022/08/09 11:53:27;;;;;;;;;;;;;;;;;;5076907;28;1218;-73
2022/08/09 11:55:53;;;;;;;;;;;;;;;;;;5060147;28;1211;-72
2022/08/09 11:58:18;;;;;;;;;;;;;;;;;;5094776;28;935;-72
2022/08/09 12:00:48;;;;;;;;;;;;;;;;;;5094453;28;1959;-73
2022/08/09 12:03:15;;;;;;;;;;;;;;;;;;5095217;28;804;-73
2022/08/09 12:05:40;;;;;;;;;;;;;;;;;;5094829;28;876;-73
2022/08/09 12:08:08;;;;;;;;;;;;;;;;;;5094783;28;848;-73
2022/08/09 12:10:34;;;;;;;;;;;;;;;;;;5076527;28;1250;-73
2022/08/09 12:12:59;;;;;;;;;;;;;;;;;;5076818;28;1254;-73
2022/08/09 12:15:25;;;;;;;;;;;;;;;;;;5095126;28;833;-73
2022/08/09 12:17:51;;;;;;;;;;;;;;;;;;5095075;28;832;-72
2022/08/09 12:20:21;;;;;;;;;;;;;;;;;;5095333;28;1902;-72
2022/08/09 12:22:47;;;;;;;;;;;;;;;;;;5076184;28;1326;-73
2022/08/09 12:25:17;;;;;;;;;;;;;;;;;;5076611;28;987;-71
2022/08/09 12:27:42;;;;;;;;;;;;;;;;;;5095035;28;1006;-73
2022/08/09 12:30:08;;;;;;;;;;;;;;;;;;5076276;28;1447;-71
2022/08/09 12:32:34;;;;;;;;;;;;;;;;;;5075785;28;1292;-72
2022/08/09 12:35:01;;;;;;;;;;;;;;;;;;5094218;28;891;-73
2022/08/09 12:37:30;;;;;;;;;;;;;;;;;;5094158;28;848;-73
2022/08/09 12:40:09;;;;;;;;;;;;;;;;;;5075976;28;1282;-73
2022/08/09 12:42:35;;;;;;;;;;;;;;;;;;5076057;28;1898;-73
2022/08/09 12:45:01;;;;;;;;;;;;;;;;;;5075741;28;1293;-73
2022/08/09 12:47:27;;;;;;;;;;;;;;;;;;5075997;28;813;-73
2022/08/09 12:52:39;;;;;;;;;;;;;;;;;;5093931;28;702;-73
2022/08/09 12:55:06;;;;;;;;;;;;;;;;;;5093947;28;825;-73
2022/08/09 12:57:39;;;;;;;;;;;;;;;;;;5075713;28;911;-73
2022/08/09 13:00:11;;;;;;;;;;;;;;;;;;5075368;28;1239;-73
2022/08/09 13:02:50;;;;;;;;;;;;;;;;;;5093412;28;1890;-73
2022/08/09 13:05:16;;;;;;;;;;;;;;;;;;5076029;28;1309;-73
2022/08/09 13:07:41;;;;;;;;;;;;;;;;;;5058864;28;1441;-73
2022/08/09 13:10:07;;;;;;;;;;;;;;;;;;5092608;28;904;-73
2022/08/09 13:12:32;;;;;;;;;;;;;;;;;;5093335;28;857;-73
2022/08/09 13:15:07;;;;;;;;;;;;;;;;;;5093343;28;864;-73
2022/08/09 13:17:33;;;;;;;;;;;;;;;;;;5093458;28;884;-74
2022/08/09 13:19:58;;;;;;;;;;;;;;;;;;5093081;28;891;-73
2022/08/09 13:22:25;;;;;;;;;;;;;;;;;;5075572;28;1902;-73
2022/08/09 13:24:53;;;;;;;;;;;;;;;;;;5074540;28;1350;-73
2022/08/09 13:27:23;;;;;;;;;;;;;;;;;;5075084;28;1337;-73
2022/08/09 13:30:04;;;;;;;;;;;;;;;;;;5093021;28;805;-73
2022/08/09 13:33:02;;;;;;;;;;;;;;;;;;5092751;28;867;-74
2022/08/09 13:35:27;;;;;;;;;;;;;;;;;;5058943;28;1264;-73
2022/08/09 13:37:54;;;;;;;;;;;;;;;;;;5092778;28;884;-73
2022/08/09 13:40:19;;;;;;;;;;;;;;;;;;5093260;28;884;-72
2022/08/09 13:42:45;;;;;;;;;;;;;;;;;;5093382;28;907;-73
2022/08/09 13:45:11;;;;;;;;;;;;;;;;;;5092844;28;848;-74
2022/08/09 13:47:37;;;;;;;;;;;;;;;;;;5092772;28;907;-73
2022/08/09 13:50:04;;;;;;;;;;;;;;;;;;5093078;28;1100;-73
2022/08/09 13:52:29;;;;;;;;;;;;;;;;;;5075261;28;1258;-73
2022/08/09 13:54:55;;;;;;;;;;;;;;;;;;5092635;28;840;-73
2022/08/09 13:57:20;;;;;;;;;;;;;;;;;;5075002;28;1144;-72
2022/08/09 13:59:46;;;;;;;;;;;;;;;;;;5075229;28;1296;-73
2022/08/09 14:02:11;;;;;;;;;;;;;;;;;;5092948;28;1894;-74
2022/08/09 14:04:37;;;;;;;;;;;;;;;;;;5075378;28;907;-73
2022/08/09 14:07:02;;;;;;;;;;;;;;;;;;5093212;28;911;-73
2022/08/09 14:09:27;;;;;;;;;;;;;;;;;;5075056;28;947;-73
2022/08/09 14:11:54;;;;;;;;;;;;;;;;;;5074724;28;852;-73
2022/08/09 14:14:19;;;;;;;;;;;;;;;;;;5093162;28;864;-74
2022/08/09 14:16:45;;;;;;;;;;;;;;;;;;5093182;28;900;-74
2022/08/09 14:19:10;;;;;;;;;;;;;;;;;;5093327;28;860;-74
2022/08/09 14:21:36;;;;;;;;;;;;;;;;;;5078008;28;1897;-73
2022/08/09 14:24:01;;;;;;;;;;;;;;;;;;5079080;28;1277;-73
2022/08/09 14:26:27;;;;;;;;;;;;;;;;;;5062196;28;1190;-74
2022/08/09 14:28:52;;;;;;;;;;;;;;;;;;5097063;28;951;-73
2022/08/09 14:31:18;;;;;;;;;;;;;;;;;;5061783;28;1200;-73
2022/08/09 14:33:43;;;;;;;;;;;;;;;;;;5061689;28;1164;-73
2022/08/09 14:36:08;;;;;;;;;;;;;;;;;;5097151;28;959;-73
2022/08/09 14:38:33;;;;;;;;;;;;;;;;;;5096581;28;828;-73
2022/08/09 14:40:59;;;;;;;;;;;;;;;;;;5078096;28;1967;-73
2022/08/09 14:43:24;;;;;;;;;;;;;;;;;;5096375;28;920;-73
2022/08/09 14:45:49;;;;;;;;;;;;;;;;;;5061776;28;1238;-74
2022/08/09 14:48:15;;;;;;;;;;;;;;;;;;5096227;28;833;-73
2022/08/09 14:50:40;;;;;;;;;;;;;;;;;;5096527;28;880;-73
2022/08/09 14:53:06;;;;;;;;;;;;;;;;;;5061405;28;1266;-73
2022/08/09 14:55:32;;;;;;;;;;;;;;;;;;5096602;28;916;-73
2022/08/09 14:57:57;;;;;;;;;;;;;;;;;;5096449;28;840;-72
2022/08/09 15:00:23;;;;;;;;;;;;;;;;;;5078148;28;1382;-75
2022/08/09 15:02:48;;;;;;;;;;;;;;;;;;5077923;28;1378;-72
2022/08/09 15:05:13;;;;;;;;;;;;;;;;;;5077633;28;1158;-72
2022/08/09 15:07:39;;;;;;;;;;;;;;;;;;5078063;28;1425;-73
2022/08/09 15:10:04;;;;;;;;;;;;;;;;;;5077338;28;1293;-72
2022/08/09 15:12:29;;;;;;;;;;;;;;;;;;5077679;28;1448;-73
2022/08/09 15:14:55;;;;;;;;;;;;;;;;;;5061565;28;1317;-72
2022/08/09 15:17:20;;;;;;;;;;;;;;;;;;5096062;28;915;-73
2022/08/09 15:19:45;;;;;;;;;;;;;;;;;;5095938;28;999;-73
2022/08/09 15:22:11;;;;;;;;;;;;;;;;;;5077913;28;1902;-74
2022/08/09 15:24:36;;;;;;;;;;;;;;;;;;5078236;28;982;-74
2022/08/09 15:27:01;;;;;;;;;;;;;;;;;;5077633;28;1078;-70
2022/08/09 15:29:27;;;;;;;;;;;;;;;;;;5096257;28;794;-72
2022/08/09 15:31:52;;;;;;;;;;;;;;;;;;5060394;28;1336;-68
2022/08/09 15:34:17;;;;;;;;;;;;;;;;;;5076960;28;1108;-68
2022/08/09 15:36:42;;;;;;;;;;;;;;;;;;5077577;28;1306;-68
2022/08/09 15:39:08;;;;;;;;;;;;;;;;;;5077235;28;1140;-68
2022/08/09 15:41:33;;;;;;;;;;;;;;;;;;5077837;28;1959;-67
2022/08/09 15:43:59;;;;;;;;;;;;;;;;;;5095726;28;848;-68
2022/08/09 15:46:24;;;;;;;;;;;;;;;;;;5077305;28;1078;-68
2022/08/09 15:48:49;;;;;;;;;;;;;;;;;;5095834;28;832;-68
2022/08/09 15:51:15;;;;;;;;;;;;;;;;;;5077268;28;793;-67
2022/08/09 15:53:40;;;;;;;;;;;;;;;;;;5077920;28;915;-68
2022/08/09 15:56:05;;;;;;;;;;;;;;;;;;5096571;28;816;-73
2022/08/09 15:58:31;;;;;;;;;;;;;;;;;;5097645;28;994;-72
2022/08/09 16:00:56;;;;;;;;;;;;;;;;;;5097574;28;1968;-73
2022/08/09 16:03:21;;;;;;;;;;;;;;;;;;5061422;28;1235;-72
2022/08/09 16:05:47;;;;;;;;;;;;;;;;;;5078043;28;1182;-72
2022/08/09 16:08:12;;;;;;;;;;;;;;;;;;5077121;28;892;-72
2022/08/09 16:10:38;;;;;;;;;;;;;;;;;;5096253;28;804;-72
2022/08/09 16:13:03;;;;;;;;;;;;;;;;;;5076089;28;1512;-72
2022/08/09 16:15:28;;;;;;;;;;;;;;;;;;5057680;28;1287;-72
2022/08/09 16:17:54;;;;;;;;;;;;;;;;;;5094111;28;990;-72
2022/08/09 16:20:20;;;;;;;;;;;;;;;;;;5059471;28;1176;-73
2022/08/09 16:22:45;;;;;;;;;;;;;;;;;;5093995;28;1897;-72
2022/08/09 16:25:11;;;;;;;;;;;;;;;;;;5075850;28;1182;-72
2022/08/09 16:27:37;;;;;;;;;;;;;;;;;;5076027;28;1305;-72
2022/08/09 16:30:03;;;;;;;;;;;;;;;;;;5059555;28;1370;-72
2022/08/09 16:35:13;;;;;;;;;;;;;;;;;;5078505;28;674;-73
2022/08/09 16:37:39;;;;;;;;;;;;;;;;;;5093813;28;912;-72
2022/08/09 16:40:04;;;;;;;;;;;;;;;;;;5059083;28;1237;-72
2022/08/09 16:42:29;;;;;;;;;;;;;;;;;;5075196;28;1977;-72
2022/08/09 16:44:55;;;;;;;;;;;;;;;;;;5057817;28;1332;-72
2022/08/09 16:47:20;;;;;;;;;;;;;;;;;;5093403;28;892;-72
2022/08/09 16:49:45;;;;;;;;;;;;;;;;;;5075935;28;829;-72
2022/08/09 16:52:10;;;;;;;;;;;;;;;;;;5093840;28;928;-72
2022/08/09 16:54:36;;;;;;;;;;;;;;;;;;5075799;28;821;-73
2022/08/09 16:57:01;;;;;;;;;;;;;;;;;;5075559;28;927;-72
2022/08/09 16:59:26;;;;;;;;;;;;;;;;;;5058455;28;1234;-73
2022/08/09 17:01:51;;;;;;;;;;;;;;;;;;5058895;28;1893;-72
2022/08/09 17:04:17;;;;;;;;;;;;;;;;;;5058432;28;1238;-73
2022/08/09 17:06:42;;;;;;;;;;;;;;;;;;5075634;28;840;-72
2022/08/09 17:09:07;;;;;;;;;;;;;;;;;;5075020;28;1166;-72
2022/08/09 17:11:33;;;;;;;;;;;;;;;;;;5093297;28;821;-72
2022/08/09 17:13:58;;;;;;;;;;;;;;;;;;5058171;28;1316;-72
2022/08/09 17:16:23;;;;;;;;;;;;;;;;;;5058393;28;1221;-72